Time;durP1;ratioP1;P1;durP2;ratioP2;P2;SDS_P1;SDS_P2;PMS_P1;PMS_P2;Temp;Humidity;BMP_temperature;BMP_pressure;BME280_temperature;BME280_humidity;BME280_pressure;Samples;Min_cycle;Max_cycle;Signal;HPM_P1;HPM_P2
2022/08/18 00:02:18;;;;;;;10.07;9.48;;;;;;;;;;5043257;28;19970;-60
2022/08/18 00:04:45;;;;;;;10.90;10.20;;;;;;;;;;5040085;28;20505;-61
2022/08/18 00:07:19;;;;;;;9.98;9.32;;;;;;;;;;5038724;28;20108;-61
2022/08/18 00:09:46;;;;;;;10.73;10.02;;;;;;;;;;5039914;28;20113;-60
2022/08/18 00:12:22;;;;;;;13.63;12.82;;;;;;;;;;5040533;28;20061;-60
2022/08/18 00:14:48;;;;;;;11.95;11.20;;;;;;;;;;5039440;28;20051;-60
2022/08/18 00:17:14;;;;;;;11.95;11.25;;;;;;;;;;5040450;28;20029;-60
2022/08/18 00:19:39;;;;;;;11.57;10.88;;;;;;;;;;5042409;28;20501;-60
2022/08/18 00:22:06;;;;;;;13.60;12.80;;;;;;;;;;5041916;28;20092;-60
2022/08/18 00:24:32;;;;;;;11.52;10.82;;;;;;;;;;5038864;28;20519;-60
2022/08/18 00:26:57;;;;;;;11.75;11.05;;;;;;;;;;5040366;28;20535;-60
2022/08/18 00:29:24;;;;;;;12.02;11.32;;;;;;;;;;5039094;28;20030;-60
2022/08/18 00:31:50;;;;;;;9.82;9.20;;;;;;;;;;5039231;28;20041;-60
2022/08/18 00:34:15;;;;;;;12.50;11.73;;;;;;;;;;5037597;28;20048;-62
2022/08/18 00:36:41;;;;;;;11.43;10.68;;;;;;;;;;5037820;28;20029;-61
2022/08/18 00:39:06;;;;;;;12.13;11.32;;;;;;;;;;5039103;28;20087;-61
2022/08/18 00:41:31;;;;;;;11.05;10.35;;;;;;;;;;5034852;28;20041;-62
2022/08/18 00:43:57;;;;;;;10.77;10.07;;;;;;;;;;5038158;28;20485;-61
2022/08/18 00:46:33;;;;;;;11.13;10.43;;;;;;;;;;5042636;28;20147;-61
2022/08/18 00:48:59;;;;;;;12.30;11.50;;;;;;;;;;5051884;28;20041;-62
2022/08/18 00:51:37;;;;;;;12.32;11.52;;;;;;;;;;5041661;28;20091;-62
2022/08/18 00:54:19;;;;;;;10.40;9.70;;;;;;;;;;5039583;28;20052;-62
2022/08/18 00:56:51;;;;;;;10.57;9.88;;;;;;;;;;5040630;28;20057;-62
2022/08/18 00:59:27;;;;;;;11.18;10.48;;;;;;;;;;5041648;28;20032;-62
2022/08/18 01:01:54;;;;;;;11.77;11.02;;;;;;;;;;5040265;28;20025;-62
2022/08/18 01:04:54;;;;;;;13.90;13.07;;;;;;;;;;5040923;28;20056;-62
2022/08/18 01:07:28;;;;;;;11.02;10.32;;;;;;;;;;5036999;28;20033;-62
2022/08/18 01:09:55;;;;;;;10.82;10.13;;;;;;;;;;5038949;28;20060;-62
2022/08/18 01:12:20;;;;;;;11.93;11.23;;;;;;;;;;5035580;28;20128;-62
2022/08/18 01:14:46;;;;;;;13.10;12.13;;;;;;;;;;5038689;28;20103;-61
2022/08/18 01:22:46;;;;;;;10.48;9.77;;;;;;;;;;5035485;28;20490;-61
2022/08/18 01:27:56;;;;;;;10.20;9.50;;;;;;;;;;5035627;28;20044;-61
2022/08/18 01:30:24;;;;;;;11.88;11.05;;;;;;;;;;5039290;28;20387;-61
2022/08/18 01:32:51;;;;;;;11.73;11.02;;;;;;;;;;5037092;28;20025;-62
2022/08/18 01:35:19;;;;;;;15.32;14.43;;;;;;;;;;5036346;28;20039;-61
2022/08/18 01:37:44;;;;;;;13.70;12.90;;;;;;;;;;5033313;28;20025;-61
2022/08/18 01:40:12;;;;;;;10.98;10.27;;;;;;;;;;5039293;28;20033;-61
2022/08/18 01:42:38;;;;;;;14.10;13.20;;;;;;;;;;5035326;28;20440;-61
2022/08/18 01:45:06;;;;;;;13.23;12.40;;;;;;;;;;5038605;28;20116;-61
2022/08/18 01:47:33;;;;;;;13.32;12.52;;;;;;;;;;5038694;28;20520;-62
2022/08/18 01:49:59;;;;;;;14.45;13.55;;;;;;;;;;5037525;28;20057;-62
2022/08/18 01:52:26;;;;;;;13.23;12.43;;;;;;;;;;5037779;28;20061;-62
2022/08/18 01:54:52;;;;;;;16.85;15.82;;;;;;;;;;5038953;28;20048;-61
2022/08/18 01:57:19;;;;;;;13.27;12.32;;;;;;;;;;5036689;28;20029;-62
2022/08/18 01:59:45;;;;;;;12.13;11.32;;;;;;;;;;5039578;28;20041;-61
2022/08/18 02:02:23;;;;;;;13.68;12.88;;;;;;;;;;5035399;28;20025;-61
2022/08/18 02:04:53;;;;;;;11.38;10.68;;;;;;;;;;5038260;28;20025;-61
2022/08/18 02:07:19;;;;;;;12.18;11.38;;;;;;;;;;5036532;28;20045;-61
2022/08/18 02:09:44;;;;;;;11.52;10.82;;;;;;;;;;5035549;28;20041;-61
2022/08/18 02:12:10;;;;;;;12.23;11.45;;;;;;;;;;5042791;28;20021;-61
2022/08/18 02:14:36;;;;;;;15.27;14.15;;;;;;;;;;5036252;28;20043;-61
2022/08/18 02:17:03;;;;;;;16.58;15.50;;;;;;;;;;5036269;28;20040;-61
2022/08/18 02:19:39;;;;;;;13.52;12.73;;;;;;;;;;5036469;28;20040;-61
2022/08/18 02:22:07;;;;;;;13.68;12.77;;;;;;;;;;5038641;28;20037;-61
2022/08/18 02:24:32;;;;;;;15.00;14.05;;;;;;;;;;5035526;28;20603;-61
2022/08/18 02:26:58;;;;;;;13.00;12.20;;;;;;;;;;5037350;28;20120;-61
2022/08/18 02:29:23;;;;;;;12.82;12.02;;;;;;;;;;5035316;28;20029;-61
2022/08/18 02:31:49;;;;;;;12.77;11.98;;;;;;;;;;5036765;28;20518;-61
2022/08/18 02:34:15;;;;;;;13.38;12.57;;;;;;;;;;5038815;28;20100;-61
2022/08/18 02:36:41;;;;;;;13.35;12.55;;;;;;;;;;5036784;28;20032;-61
2022/08/18 02:39:06;;;;;;;14.95;14.05;;;;;;;;;;5036750;28;20024;-61
2022/08/18 02:41:32;;;;;;;13.18;12.38;;;;;;;;;;5034971;28;20033;-61
2022/08/18 02:43:58;;;;;;;14.60;13.70;;;;;;;;;;5037721;28;20037;-61
2022/08/18 02:46:25;;;;;;;13.15;12.38;;;;;;;;;;5036950;28;20024;-60
2022/08/18 02:48:51;;;;;;;15.45;14.45;;;;;;;;;;5037388;28;20029;-60
2022/08/18 02:51:17;;;;;;;13.93;13.07;;;;;;;;;;5038010;28;20032;-60
2022/08/18 02:53:45;;;;;;;13.25;12.45;;;;;;;;;;5037923;28;20029;-61
2022/08/18 02:56:21;;;;;;;16.05;15.05;;;;;;;;;;5035618;28;20597;-61
2022/08/18 02:58:48;;;;;;;15.43;14.52;;;;;;;;;;5036761;28;20045;-61
2022/08/18 03:01:14;;;;;;;17.00;16.00;;;;;;;;;;5035613;28;20064;-61
2022/08/18 03:03:40;;;;;;;17.00;16.00;;;;;;;;;;5035248;28;20112;-61
2022/08/18 03:06:05;;;;;;;18.92;17.83;;;;;;;;;;5034067;28;20691;-61
2022/08/18 03:08:31;;;;;;;19.20;18.13;;;;;;;;;;5037190;28;20044;-61
2022/08/18 03:10:57;;;;;;;20.45;19.33;;;;;;;;;;5035062;28;20033;-60
2022/08/18 03:13:23;;;;;;;19.42;18.27;;;;;;;;;;5035692;28;20033;-61
2022/08/18 03:15:48;;;;;;;19.90;18.80;;;;;;;;;;5039548;28;20041;-61
2022/08/18 03:18:13;;;;;;;16.88;15.95;;;;;;;;;;5034839;28;20477;-60
2022/08/18 03:20:40;;;;;;;18.33;17.23;;;;;;;;;;5034986;28;20030;-61
2022/08/18 03:23:05;;;;;;;15.93;15.02;;;;;;;;;;5038113;28;20034;-60
2022/08/18 03:25:31;;;;;;;19.88;18.75;;;;;;;;;;5038271;28;20565;-61
2022/08/18 03:27:56;;;;;;;19.52;18.33;;;;;;;;;;5035542;28;20112;-60
2022/08/18 03:30:22;;;;;;;18.08;17.08;;;;;;;;;;5035790;28;20199;-61
2022/08/18 03:32:48;;;;;;;17.65;16.67;;;;;;;;;;5035893;28;20111;-61
2022/08/18 03:35:14;;;;;;;18.23;17.15;;;;;;;;;;5035741;28;20017;-61
2022/08/18 03:37:39;;;;;;;16.83;15.85;;;;;;;;;;5034488;28;20048;-61
2022/08/18 03:40:05;;;;;;;19.35;18.20;;;;;;;;;;5038001;28;20355;-61
2022/08/18 03:42:30;;;;;;;18.80;17.60;;;;;;;;;;5035996;28;20105;-61
2022/08/18 03:44:56;;;;;;;22.42;21.13;;;;;;;;;;5036395;28;20041;-61
2022/08/18 03:47:21;;;;;;;20.30;19.17;;;;;;;;;;5036600;28;20033;-61
2022/08/18 03:49:47;;;;;;;19.58;18.50;;;;;;;;;;5033268;28;20559;-61
2022/08/18 03:52:13;;;;;;;19.92;18.63;;;;;;;;;;5037702;28;20030;-61
2022/08/18 03:54:40;;;;;;;23.38;22.05;;;;;;;;;;5034705;28;20037;-62
2022/08/18 03:57:11;;;;;;;19.13;18.05;;;;;;;;;;5036218;28;20029;-62
2022/08/18 03:59:40;;;;;;;21.05;19.92;;;;;;;;;;5034555;28;20044;-62
2022/08/18 04:02:06;;;;;;;20.17;19.05;;;;;;;;;;5034335;28;20131;-62
2022/08/18 04:04:32;;;;;;;18.15;17.15;;;;;;;;;;5033733;28;20112;-62
2022/08/18 04:07:03;;;;;;;17.50;16.30;;;;;;;;;;5034384;28;20048;-62
2022/08/18 04:09:31;;;;;;;17.45;16.35;;;;;;;;;;5034132;28;20029;-61
2022/08/18 04:12:01;;;;;;;19.60;18.50;;;;;;;;;;5033000;28;20026;-61
2022/08/18 04:14:30;;;;;;;19.17;18.08;;;;;;;;;;5035187;28;20047;-61
2022/08/18 04:16:56;;;;;;;20.25;19.10;;;;;;;;;;5035164;28;20108;-61
2022/08/18 04:19:22;;;;;;;19.15;18.02;;;;;;;;;;5039130;28;20029;-61
2022/08/18 04:21:52;;;;;;;20.88;19.67;;;;;;;;;;5035717;28;20332;-62
2022/08/18 04:24:17;;;;;;;21.17;20.02;;;;;;;;;;5037498;28;20044;-62
2022/08/18 04:26:44;;;;;;;19.90;18.80;;;;;;;;;;5037113;28;20048;-62
2022/08/18 04:29:12;;;;;;;18.98;17.85;;;;;;;;;;5040771;28;20033;-62
2022/08/18 04:31:37;;;;;;;20.75;19.60;;;;;;;;;;5039316;28;20494;-62
2022/08/18 04:34:04;;;;;;;20.58;19.40;;;;;;;;;;5039440;28;20113;-62
2022/08/18 04:36:33;;;;;;;18.38;17.33;;;;;;;;;;5038399;28;20344;-62
2022/08/18 04:38:58;;;;;;;18.85;17.65;;;;;;;;;;5039221;28;20490;-62
2022/08/18 04:41:26;;;;;;;22.60;21.35;;;;;;;;;;5038291;28;20033;-61
2022/08/18 04:44:02;;;;;;;20.65;19.50;;;;;;;;;;5038487;28;20475;-60
2022/08/18 04:46:29;;;;;;;17.55;16.55;;;;;;;;;;5032988;28;20037;-60
2022/08/18 04:48:57;;;;;;;24.30;22.95;;;;;;;;;;5040554;28;20940;-61
2022/08/18 04:51:24;;;;;;;22.30;21.10;;;;;;;;;;5039752;28;20472;-60
2022/08/18 04:53:50;;;;;;;23.23;21.95;;;;;;;;;;5038847;28;20025;-60
2022/08/18 04:56:25;;;;;;;20.10;18.98;;;;;;;;;;5034970;28;20576;-61
2022/08/18 04:58:53;;;;;;;20.80;19.60;;;;;;;;;;5036432;28;20033;-61
2022/08/18 05:01:20;;;;;;;16.00;15.07;;;;;;;;;;5037571;28;20029;-60
2022/08/18 05:03:50;;;;;;;15.38;14.48;;;;;;;;;;5037735;28;20041;-61
2022/08/18 05:06:16;;;;;;;13.90;13.05;;;;;;;;;;5037698;28;20028;-61
2022/08/18 05:08:42;;;;;;;15.77;14.85;;;;;;;;;;5033355;28;20156;-61
2022/08/18 05:11:08;;;;;;;13.75;12.95;;;;;;;;;;5035638;28;20108;-62
2022/08/18 05:13:33;;;;;;;15.85;14.95;;;;;;;;;;5038132;28;20095;-61
2022/08/18 05:16:02;;;;;;;15.48;14.18;;;;;;;;;;5036582;28;20028;-61
2022/08/18 05:18:37;;;;;;;13.25;12.45;;;;;;;;;;5035046;28;20037;-61
2022/08/18 05:21:03;;;;;;;14.65;13.65;;;;;;;;;;5036202;28;20032;-61
2022/08/18 05:23:28;;;;;;;14.43;13.63;;;;;;;;;;5035114;28;20470;-61
2022/08/18 05:25:59;;;;;;;13.90;13.10;;;;;;;;;;5039140;28;20037;-61
2022/08/18 05:28:24;;;;;;;;;;;;;;;;;;5033037;28;20037;-61
2022/08/18 05:30:49;;;;;;;12.60;11.85;;;;;;;;;;5036450;28;19928;-62
2022/08/18 05:33:15;;;;;;;13.20;12.40;;;;;;;;;;5037825;28;20036;-62
2022/08/18 05:35:45;;;;;;;13.75;12.95;;;;;;;;;;5035607;28;20029;-62
2022/08/18 05:38:14;;;;;;;;;;;;;;;;;;5036422;28;20043;-62
2022/08/18 05:40:40;;;;;;;11.85;11.05;;;;;;;;;;5035953;28;19923;-61
2022/08/18 05:43:07;;;;;;;13.02;12.23;;;;;;;;;;5038885;28;20024;-61
2022/08/18 05:45:33;;;;;;;15.90;14.77;;;;;;;;;;5033798;28;20068;-62
2022/08/18 05:48:00;;;;;;;13.07;12.27;;;;;;;;;;5037173;28;20696;-62
2022/08/18 05:50:27;;;;;;;16.98;15.98;;;;;;;;;;5038994;28;20037;-62
2022/08/18 05:53:13;;;;;;;14.52;13.65;;;;;;;;;;5038050;28;20296;-62
2022/08/18 05:58:39;;;;;;;16.67;15.68;;;;;;;;;;5035534;28;20029;-62
2022/08/18 06:01:29;;;;;;;16.92;15.93;;;;;;;;;;5039747;28;20190;-62
2022/08/18 06:04:03;;;;;;;39.90;37.80;;;;;;;;;;5031114;28;20045;-62
2022/08/18 06:06:30;;;;;;;46.55;44.08;;;;;;;;;;5031857;28;20600;-62
2022/08/18 06:09:27;;;;;;;49.55;47.03;;;;;;;;;;5032580;28;20033;-62
2022/08/18 06:11:57;;;;;;;46.38;43.97;;;;;;;;;;5034639;28;20553;-62
2022/08/18 06:14:22;;;;;;;59.37;56.37;;;;;;;;;;5038081;28;20082;-62
2022/08/18 06:17:06;;;;;;;57.90;54.95;;;;;;;;;;5038333;28;20037;-62
2022/08/18 06:19:43;;;;;;;64.55;61.28;;;;;;;;;;5035218;28;20064;-62
2022/08/18 06:22:27;;;;;;;57.92;54.88;;;;;;;;;;5037527;28;20040;-62
2022/08/18 06:25:05;;;;;;;58.80;55.17;;;;;;;;;;5035354;28;20415;-62
2022/08/18 06:27:44;;;;;;;60.53;57.50;;;;;;;;;;5036423;28;20043;-62
2022/08/18 06:30:21;;;;;;;74.28;70.53;;;;;;;;;;5033330;28;20111;-63
2022/08/18 06:33:05;;;;;;;80.75;76.57;;;;;;;;;;5037569;28;20029;-62
2022/08/18 06:35:53;;;;;;;76.60;72.78;;;;;;;;;;5033944;28;20033;-64
2022/08/18 06:38:55;;;;;;;63.85;60.63;;;;;;;;;;5032906;28;20032;-65
2022/08/18 06:41:38;;;;;;;71.50;67.95;;;;;;;;;;5019006;28;20124;-66
2022/08/18 06:44:10;;;;;;;69.47;66.03;;;;;;;;;;5043620;28;20025;-68
2022/08/18 06:46:40;;;;;;;71.93;68.38;;;;;;;;;;5036913;28;20033;-68
2022/08/18 06:49:10;;;;;;;85.15;80.85;;;;;;;;;;5037207;28;20122;-67
2022/08/18 06:51:36;;;;;;;83.90;79.78;;;;;;;;;;5035392;28;20103;-66
2022/08/18 06:54:26;;;;;;;79.57;75.55;;;;;;;;;;5035166;28;20037;-66
2022/08/18 06:56:53;;;;;;;71.78;68.20;;;;;;;;;;5034316;28;20045;-67
2022/08/18 06:59:35;;;;;;;75.00;71.10;;;;;;;;;;5036429;28;20033;-67
2022/08/18 07:02:15;;;;;;;68.97;65.55;;;;;;;;;;5033094;28;20818;-66
2022/08/18 07:04:56;;;;;;;69.25;65.75;;;;;;;;;;5036489;28;20123;-67
2022/08/18 07:07:43;;;;;;;69.90;66.43;;;;;;;;;;5034050;28;20158;-68
2022/08/18 07:10:14;;;;;;;73.65;69.97;;;;;;;;;;5035501;28;20080;-68
2022/08/18 07:12:40;;;;;;;68.57;65.00;;;;;;;;;;5032495;28;20029;-69
2022/08/18 07:15:10;;;;;;;77.82;73.95;;;;;;;;;;5037301;28;20040;-69
2022/08/18 07:17:40;;;;;;;71.10;67.55;;;;;;;;;;5034585;28;20135;-69
2022/08/18 07:20:06;;;;;;;80.88;76.82;;;;;;;;;;5034622;28;20064;-68
2022/08/18 07:22:52;;;;;;;85.15;80.90;;;;;;;;;;5032049;28;20112;-67
2022/08/18 07:25:24;;;;;;;75.55;71.68;;;;;;;;;;5034338;28;20112;-67
2022/08/18 07:27:54;;;;;;;84.38;80.15;;;;;;;;;;5036957;28;20029;-68
2022/08/18 07:30:20;;;;;;;80.57;76.57;;;;;;;;;;5035301;28;20029;-67
2022/08/18 07:33:17;;;;;;;73.45;69.78;;;;;;;;;;5037489;28;20037;-66
2022/08/18 07:35:55;;;;;;;80.50;76.43;;;;;;;;;;5028772;28;20111;-67
2022/08/18 07:38:33;;;;;;;70.00;66.50;;;;;;;;;;5033125;28;20749;-67
2022/08/18 07:41:07;;;;;;;66.82;63.47;;;;;;;;;;5036352;28;20373;-67
2022/08/18 07:43:45;;;;;;;70.82;67.25;;;;;;;;;;5031439;28;20037;-67
2022/08/18 07:46:36;;;;;;;69.97;66.45;;;;;;;;;;5033873;28;20029;-68
2022/08/18 07:49:02;;;;;;;61.05;58.00;;;;;;;;;;5034839;28;20063;-67
2022/08/18 07:51:42;;;;;;;64.03;60.78;;;;;;;;;;5033909;28;20041;-67
2022/08/18 07:54:13;;;;;;;58.63;55.67;;;;;;;;;;5039608;28;20021;-67
2022/08/18 07:57:03;;;;;;;64.15;60.90;;;;;;;;;;5039936;28;20052;-67
2022/08/18 07:59:36;;;;;;;;;;;;;;;;;;5037745;28;20520;-67
2022/08/18 08:02:08;;;;;;;50.47;47.88;;;;;;;;;;5038186;28;19931;-67
2022/08/18 08:04:38;;;;;;;63.28;60.13;;;;;;;;;;5039886;28;20029;-67
2022/08/18 08:07:11;;;;;;;60.13;57.08;;;;;;;;;;5041189;28;20029;-67
2022/08/18 08:09:55;;;;;;;62.22;59.08;;;;;;;;;;5036800;28;20087;-67
2022/08/18 08:13:01;;;;;;;58.40;55.40;;;;;;;;;;5039370;28;20053;-70
2022/08/18 08:15:26;;;;;;;63.13;59.92;;;;;;;;;;5000442;28;20041;-70
2022/08/18 08:18:10;;;;;;;69.18;65.65;;;;;;;;;;5040282;28;20110;-72
2022/08/18 08:20:44;;;;;;;63.05;59.85;;;;;;;;;;5036818;28;20065;-75
2022/08/18 08:23:26;;;;;;;72.93;69.28;;;;;;;;;;5038097;28;20016;-75
2022/08/18 08:26:11;;;;;;;54.80;52.03;;;;;;;;;;5040877;28;20039;-74
2022/08/18 08:28:46;;;;;;;58.60;55.53;;;;;;;;;;5040291;28;20773;-73
2022/08/18 08:31:28;;;;;;;50.03;47.45;;;;;;;;;;5039610;28;20021;-71
2022/08/18 08:34:08;;;;;;;39.58;37.35;;;;;;;;;;5039400;28;20087;-70
2022/08/18 08:36:39;;;;;;;49.37;46.77;;;;;;;;;;5036355;28;20033;-68
2022/08/18 08:39:12;;;;;;;37.03;34.97;;;;;;;;;;5041216;28;20040;-67
2022/08/18 08:41:50;;;;;;;37.83;35.88;;;;;;;;;;5038974;28;20060;-67
2022/08/18 08:44:39;;;;;;;29.85;28.25;;;;;;;;;;5040954;28;20441;-67
2022/08/18 08:47:21;;;;;;;42.05;39.75;;;;;;;;;;5040606;28;20466;-67
2022/08/18 08:49:56;;;;;;;51.08;48.45;;;;;;;;;;5034556;28;20034;-67
2022/08/18 08:52:33;;;;;;;34.28;32.50;;;;;;;;;;5037320;28;20044;-67
2022/08/18 08:55:16;;;;;;;40.13;37.88;;;;;;;;;;5038397;28;20033;-67
2022/08/18 08:58:09;;;;;;;33.08;31.35;;;;;;;;;;5035758;28;20053;-67
2022/08/18 09:00:37;;;;;;;37.83;35.75;;;;;;;;;;5036739;28;20103;-67
2022/08/18 09:03:17;;;;;;;39.15;36.97;;;;;;;;;;5038001;28;20037;-67
2022/08/18 09:06:05;;;;;;;37.47;35.47;;;;;;;;;;5039360;28;20037;-67
2022/08/18 09:08:55;;;;;;;34.38;32.55;;;;;;;;;;5037497;28;20045;-67
2022/08/18 09:11:36;;;;;;;41.00;38.85;;;;;;;;;;5037770;28;20034;-67
2022/08/18 09:14:39;;;;;;;30.55;28.88;;;;;;;;;;5040032;28;20451;-68
2022/08/18 09:17:32;;;;;;;29.50;27.90;;;;;;;;;;5039374;28;20032;-69
2022/08/18 09:20:23;;;;;;;34.53;32.53;;;;;;;;;;5037111;28;20426;-69
2022/08/18 09:23:10;;;;;;;35.80;33.83;;;;;;;;;;5037293;28;20703;-70
2022/08/18 09:25:40;;;;;;;37.85;35.85;;;;;;;;;;5039051;28;20033;-70
2022/08/18 09:28:12;;;;;;;44.03;41.70;;;;;;;;;;5035966;28;20040;-69
2022/08/18 09:30:51;;;;;;;45.20;42.80;;;;;;;;;;5038021;28;20549;-69
2022/08/18 09:33:21;;;;;;;50.00;47.42;;;;;;;;;;5038523;28;20037;-69
2022/08/18 09:35:58;;;;;;;51.80;49.15;;;;;;;;;;5038266;28;20400;-69
2022/08/18 09:41:32;;;;;;;64.00;60.78;;;;;;;;;;5036696;28;20491;-69
2022/08/18 09:44:09;;;;;;;59.05;56.00;;;;;;;;;;5037946;28;20101;-69
2022/08/18 09:46:40;;;;;;;64.55;61.22;;;;;;;;;;5040243;28;20690;-69
2022/08/18 09:49:29;;;;;;;67.40;63.90;;;;;;;;;;5034358;28;20124;-69
2022/08/18 09:51:57;;;;;;;49.60;46.95;;;;;;;;;;5034011;28;20112;-69
2022/08/18 09:54:26;;;;;;;49.20;46.30;;;;;;;;;;5035410;28;20026;-69
2022/08/18 09:56:52;;;;;;;51.58;48.83;;;;;;;;;;5033912;28;20033;-70
2022/08/18 09:59:33;;;;;;;53.75;50.97;;;;;;;;;;5037994;28;20032;-69
2022/08/18 10:01:59;;;;;;;;;;;;;;;;;;5037993;28;20036;-69
2022/08/18 10:04:25;;;;;;;43.80;41.50;;;;;;;;;;5037558;28;20082;-69
2022/08/18 10:06:51;;;;;;;47.47;44.95;;;;;;;;;;5037244;28;20143;-69
2022/08/18 10:09:28;;;;;;;48.28;45.50;;;;;;;;;;5033496;28;20522;-69
2022/08/18 10:12:20;;;;;;;47.67;45.15;;;;;;;;;;5037569;28;20128;-69
2022/08/18 10:15:13;;;;;;;56.17;53.30;;;;;;;;;;5017855;28;20363;-69
2022/08/18 10:17:59;;;;;;;49.50;46.95;;;;;;;;;;5034657;28;20133;-69
2022/08/18 10:20:43;;;;;;;61.38;58.17;;;;;;;;;;5039088;28;20021;-70
2022/08/18 10:23:08;;;;;;;56.92;53.88;;;;;;;;;;5036912;28;20040;-70
2022/08/18 10:25:40;;;;;;;58.92;55.85;;;;;;;;;;5034471;28;20036;-70
2022/08/18 10:28:09;;;;;;;66.03;62.40;;;;;;;;;;5035406;28;20028;-70
2022/08/18 10:30:37;;;;;;;55.20;52.38;;;;;;;;;;5037289;28;20068;-71
2022/08/18 10:33:11;;;;;;;57.30;54.10;;;;;;;;;;5037759;28;20021;-72
2022/08/18 10:35:36;;;;;;;62.13;58.72;;;;;;;;;;5042788;28;20112;-70
2022/08/18 10:38:09;;;;;;;60.47;57.35;;;;;;;;;;5034953;28;20128;-69
2022/08/18 10:40:35;;;;;;;51.50;48.90;;;;;;;;;;5034842;28;20037;-69
2022/08/18 10:43:14;;;;;;;64.80;61.53;;;;;;;;;;5033224;28;20057;-72
2022/08/18 10:45:46;;;;;;;69.60;66.07;;;;;;;;;;5033931;28;20108;-71
2022/08/18 10:48:21;;;;;;;75.30;71.50;;;;;;;;;;5031105;28;20033;-70
2022/08/18 10:50:54;;;;;;;68.15;64.68;;;;;;;;;;5036015;28;20040;-70
2022/08/18 10:53:58;;;;;;;59.13;56.05;;;;;;;;;;5035072;28;20086;-70
2022/08/18 10:56:42;;;;;;;50.92;48.33;;;;;;;;;;5041967;28;20058;-70
2022/08/18 10:59:30;;;;;;;59.17;56.15;;;;;;;;;;5035803;28;20033;-70
2022/08/18 11:01:56;;;;;;;58.78;55.70;;;;;;;;;;5033101;28;20520;-71
2022/08/18 11:04:29;;;;;;;65.50;62.10;;;;;;;;;;5032338;28;20124;-71
2022/08/18 11:07:02;;;;;;;62.33;59.10;;;;;;;;;;5035407;28;20064;-70
2022/08/18 11:09:30;;;;;;;71.25;67.65;;;;;;;;;;5036001;28;20029;-72
2022/08/18 11:11:59;;;;;;;74.22;70.20;;;;;;;;;;5033700;28;20112;-70
2022/08/18 11:14:30;;;;;;;92.55;87.97;;;;;;;;;;5035552;28;20052;-69
2022/08/18 11:17:18;;;;;;;112.63;107.05;;;;;;;;;;5035963;28;20068;-69
2022/08/18 11:19:45;;;;;;;53.45;50.58;;;;;;;;;;5033137;28;20064;-68
2022/08/18 11:22:48;;;;;;;61.38;58.08;;;;;;;;;;5035242;28;20032;-69
2022/08/18 11:25:29;;;;;;;78.60;74.45;;;;;;;;;;5018731;28;21808;-72
2022/08/18 11:27:55;;;;;;;80.05;75.90;;;;;;;;;;5034244;28;20048;-71
2022/08/18 11:30:24;;;;;;;124.43;118.25;;;;;;;;;;5037277;28;20030;-69
2022/08/18 11:32:50;;;;;;;130.98;124.50;;;;;;;;;;5034882;28;20065;-70
2022/08/18 11:35:18;;;;;;;61.58;58.13;;;;;;;;;;5032260;28;20028;-69
2022/08/18 11:37:50;;;;;;;41.25;38.92;;;;;;;;;;5035451;28;20044;-69
2022/08/18 11:40:27;;;;;;;145.02;137.85;;;;;;;;;;5036775;28;20473;-68
2022/08/18 11:42:57;;;;;;;125.78;119.55;;;;;;;;;;5033405;28;20029;-68
2022/08/18 11:45:25;;;;;;;40.88;38.75;;;;;;;;;;5029140;28;20036;-67
2022/08/18 11:48:06;;;;;;;68.25;64.45;;;;;;;;;;5028684;28;20044;-67
2022/08/18 11:50:31;;;;;;;;;;;;;;;;;;5031798;28;20033;-69
2022/08/18 11:53:17;;;;;;;111.47;105.90;;;;;;;;;;5032407;28;19924;-67
2022/08/18 11:55:43;;;;;;;25.35;23.88;;;;;;;;;;5032660;28;20025;-68
2022/08/18 11:58:08;;;;;;;25.95;24.45;;;;;;;;;;5032594;28;20026;-66
2022/08/18 12:00:46;;;;;;;26.42;24.73;;;;;;;;;;5031497;28;20052;-68
2022/08/18 12:03:26;;;;;;;30.63;28.92;;;;;;;;;;5028827;28;20026;-67
2022/08/18 12:05:55;;;;;;;27.08;25.35;;;;;;;;;;5033610;28;20083;-70
2022/08/18 12:08:56;;;;;;;20.77;19.60;;;;;;;;;;5031002;28;20037;-67
2022/08/18 12:11:31;;;;;;;86.10;81.68;;;;;;;;;;5036046;28;20033;-68
2022/08/18 12:14:08;;;;;;;27.83;26.27;;;;;;;;;;5033838;28;20068;-67
2022/08/18 12:16:36;;;;;;;25.35;23.75;;;;;;;;;;5034207;28;20123;-67
2022/08/18 12:19:03;;;;;;;30.35;28.52;;;;;;;;;;5035660;28;20064;-67
2022/08/18 12:21:28;;;;;;;22.42;21.05;;;;;;;;;;5035649;28;20507;-67
2022/08/18 12:23:54;;;;;;;32.33;30.60;;;;;;;;;;5033319;28;20025;-67
2022/08/18 12:26:19;;;;;;;23.70;22.35;;;;;;;;;;5034173;28;20096;-66
2022/08/18 12:28:45;;;;;;;19.50;18.40;;;;;;;;;;5033464;28;20042;-67
2022/08/18 12:31:10;;;;;;;19.65;18.45;;;;;;;;;;5032626;28;20044;-67
2022/08/18 12:33:35;;;;;;;18.63;17.55;;;;;;;;;;5031260;28;20053;-66
2022/08/18 12:36:03;;;;;;;20.25;18.95;;;;;;;;;;5033052;28;20636;-66
2022/08/18 12:38:28;;;;;;;16.95;15.85;;;;;;;;;;5041514;28;20039;-66
2022/08/18 12:40:54;;;;;;;16.00;14.90;;;;;;;;;;5039083;28;20037;-66
2022/08/18 12:43:19;;;;;;;14.55;13.55;;;;;;;;;;5037153;28;20030;-65
2022/08/18 12:45:45;;;;;;;18.70;17.60;;;;;;;;;;5036960;28;20033;-65
2022/08/18 12:48:11;;;;;;;12.35;11.55;;;;;;;;;;5033644;28;20056;-66
2022/08/18 12:50:37;;;;;;;17.33;16.35;;;;;;;;;;5037464;28;20094;-65
2022/08/18 12:53:03;;;;;;;27.88;26.27;;;;;;;;;;5036487;28;20025;-64
2022/08/18 12:55:33;;;;;;;18.90;17.80;;;;;;;;;;5037069;28;20083;-65
2022/08/18 12:57:59;;;;;;;14.05;13.15;;;;;;;;;;5035552;28;20036;-63
2022/08/18 13:00:24;;;;;;;12.85;12.05;;;;;;;;;;5037868;28;20032;-64
2022/08/18 13:02:51;;;;;;;11.93;11.20;;;;;;;;;;5036166;28;20025;-65
2022/08/18 13:05:18;;;;;;;16.08;15.07;;;;;;;;;;5038033;28;20030;-63
2022/08/18 13:07:43;;;;;;;11.32;10.63;;;;;;;;;;5035611;28;20033;-63
2022/08/18 13:10:09;;;;;;;13.38;12.52;;;;;;;;;;5037887;28;20597;-63
2022/08/18 13:12:34;;;;;;;16.33;15.32;;;;;;;;;;5034316;28;20132;-63
2022/08/18 13:14:59;;;;;;;33.63;31.70;;;;;;;;;;5035163;28;20423;-63
2022/08/18 13:17:25;;;;;;;10.05;9.25;;;;;;;;;;5036392;28;20109;-64
2022/08/18 13:19:50;;;;;;;11.55;10.77;;;;;;;;;;5036680;28;20052;-63
2022/08/18 13:22:15;;;;;;;16.65;15.65;;;;;;;;;;5036155;28;20112;-65
2022/08/18 13:24:41;;;;;;;10.68;9.90;;;;;;;;;;5036982;28;20987;-63
2022/08/18 13:27:07;;;;;;;11.80;11.00;;;;;;;;;;5034551;28;20487;-63
2022/08/18 13:29:33;;;;;;;11.32;10.63;;;;;;;;;;5036406;28;20033;-63
2022/08/18 13:31:58;;;;;;;9.68;9.07;;;;;;;;;;5035841;28;20039;-63
2022/08/18 13:34:27;;;;;;;18.92;17.83;;;;;;;;;;5038700;28;20107;-63
2022/08/18 13:36:53;;;;;;;49.67;47.10;;;;;;;;;;5033492;28;20043;-63
2022/08/18 13:39:22;;;;;;;24.10;22.75;;;;;;;;;;5033469;28;20044;-62
2022/08/18 13:41:51;;;;;;;23.63;22.27;;;;;;;;;;5038302;28;20029;-63
2022/08/18 13:44:17;;;;;;;45.58;43.17;;;;;;;;;;5038482;28;20025;-63
2022/08/18 13:46:44;;;;;;;15.48;14.52;;;;;;;;;;5035588;28;20057;-63
2022/08/18 13:49:16;;;;;;;26.35;24.92;;;;;;;;;;5031191;28;20109;-63
2022/08/18 13:51:44;;;;;;;44.33;41.97;;;;;;;;;;5035075;28;20047;-62
2022/08/18 13:54:14;;;;;;;54.28;51.42;;;;;;;;;;5039543;28;20040;-62
2022/08/18 13:56:40;;;;;;;33.00;31.27;;;;;;;;;;5035271;28;20037;-62
2022/08/18 13:59:06;;;;;;;74.28;70.38;;;;;;;;;;5035711;28;20044;-62
2022/08/18 14:01:31;;;;;;;22.08;20.85;;;;;;;;;;5036134;28;20666;-62
2022/08/18 14:03:57;;;;;;;65.00;61.63;;;;;;;;;;5032735;28;20079;-62
2022/08/18 14:06:22;;;;;;;45.90;43.53;;;;;;;;;;5034840;28;20049;-62
2022/08/18 14:08:48;;;;;;;23.25;21.95;;;;;;;;;;5036193;28;20108;-62
2022/08/18 14:11:14;;;;;;;77.68;73.80;;;;;;;;;;5033836;28;20033;-62
2022/08/18 14:13:40;;;;;;;72.70;69.10;;;;;;;;;;5032537;28;20039;-62
2022/08/18 14:16:05;;;;;;;70.28;66.78;;;;;;;;;;5037793;28;20044;-62
2022/08/18 14:18:31;;;;;;;73.95;70.22;;;;;;;;;;5032673;28;20406;-61
2022/08/18 14:29:09;;;;;;;55.58;52.75;;;;;;;;;;5035409;28;20075;-61
2022/08/18 14:31:35;;;;;;;54.58;51.78;;;;;;;;;;5034017;28;20363;-61
2022/08/18 14:34:00;;;;;;;63.15;59.95;;;;;;;;;;5036486;28;20513;-61
2022/08/18 14:36:25;;;;;;;68.43;64.95;;;;;;;;;;5034305;28;20299;-61
2022/08/18 14:38:51;;;;;;;58.30;55.38;;;;;;;;;;5037030;28;20029;-61
2022/08/18 14:41:16;;;;;;;63.70;60.38;;;;;;;;;;5032251;28;20029;-61
2022/08/18 14:43:44;;;;;;;69.88;66.38;;;;;;;;;;5034567;28;20033;-61
2022/08/18 14:46:09;;;;;;;83.28;79.05;;;;;;;;;;5036277;28;20043;-60
2022/08/18 14:48:35;;;;;;;91.63;87.03;;;;;;;;;;5030427;28;20430;-61
2022/08/18 14:51:01;;;;;;;74.93;71.20;;;;;;;;;;5030270;28;20368;-61
2022/08/18 14:53:32;;;;;;;75.10;71.03;;;;;;;;;;5033576;28;20029;-60
2022/08/18 14:55:58;;;;;;;102.18;97.13;;;;;;;;;;5034129;28;20021;-61
2022/08/18 14:58:29;;;;;;;107.90;102.53;;;;;;;;;;5034625;28;20464;-60
2022/08/18 15:00:57;;;;;;;83.57;79.40;;;;;;;;;;5037279;28;20053;-60
2022/08/18 15:03:25;;;;;;;68.00;64.55;;;;;;;;;;5032343;28;20110;-60
2022/08/18 15:05:50;;;;;;;79.70;75.68;;;;;;;;;;5029045;28;20056;-61